Time;durP1;ratioP1;P1;durP2;ratioP2;P2;SDS_P1;SDS_P2;PMS_P1;PMS_P2;Temp;Humidity;BMP_temperature;BMP_pressure;BME280_temperature;BME280_humidity;BME280_pressure;Samples;Min_cycle;Max_cycle;Signal;HPM_P1;HPM_P2
2021/07/08 00:02:07;;;;;;;4.23;3.23;;;21.70;1.00;;;;;;4955576;29;20432;-71
2021/07/08 00:04:34;;;;;;;5.37;2.90;;;21.70;5.20;;;;;;4955515;29;20236;-70
2021/07/08 00:07:00;;;;;;;5.97;3.23;;;21.70;99.90;;;;;;4955510;29;20463;-71
2021/07/08 00:09:26;;;;;;;4.17;3.13;;;21.50;99.90;;;;;;4955309;29;20935;-71
2021/07/08 00:11:51;;;;;;;4.97;3.20;;;21.40;1.00;;;;;;4955491;29;20384;-71
2021/07/08 00:14:17;;;;;;;3.27;2.97;;;21.20;99.90;;;;;;4955535;29;20184;-71
2021/07/08 00:16:43;;;;;;;4.27;2.90;;;21.20;99.90;;;;;;4955441;29;20808;-71
2021/07/08 00:19:09;;;;;;;4.63;3.33;;;21.20;99.90;;;;;;4955377;29;20518;-71
2021/07/08 00:21:35;;;;;;;3.80;3.50;;;21.00;99.90;;;;;;4956353;28;20188;-71
2021/07/08 00:24:01;;;;;;;4.73;3.10;;;20.90;1.00;;;;;;4959337;29;20426;-70
2021/07/08 00:26:27;;;;;;;3.77;2.90;;;21.00;1.00;;;;;;4959269;29;21048;-71
2021/07/08 00:28:52;;;;;;;4.50;3.50;;;20.80;99.90;;;;;;4958968;29;20216;-71
2021/07/08 00:31:18;;;;;;;4.20;2.93;;;20.80;99.90;;;;;;4959244;29;20242;-70
2021/07/08 00:33:44;;;;;;;5.33;3.33;;;20.70;1.00;;;;;;4959000;29;20259;-70
2021/07/08 00:36:09;;;;;;;3.27;2.70;;;20.50;1.00;;;;;;4942032;29;20515;-70
2021/07/08 00:38:35;;;;;;;3.67;2.87;;;20.40;96.20;;;;;;4958782;29;20238;-71
2021/07/08 00:41:01;;;;;;;4.57;2.93;;;20.50;99.90;;;;;;4959007;29;20586;-71
2021/07/08 00:43:31;;;;;;;4.90;3.57;;;20.60;1.00;;;;;;4959032;29;20176;-70
2021/07/08 00:45:58;;;;;;;3.77;3.47;;;20.70;1.00;;;;;;4942031;29;20180;-70
2021/07/08 00:48:24;;;;;;;4.97;2.90;;;20.70;1.00;;;;;;4958736;29;20515;-71
2021/07/08 00:50:49;;;;;;;3.20;3.00;;;20.50;1.00;;;;;;4958910;29;20498;-70
2021/07/08 00:53:21;;;;;;;3.33;3.00;;;20.60;1.00;;;;;;4941875;29;20428;-70
2021/07/08 00:55:57;;;;;;;5.30;3.50;;;20.80;1.00;;;;;;4958873;29;20176;-71
2021/07/08 00:58:22;;;;;;;8.10;3.60;;;20.80;99.90;;;;;;4958667;29;20431;-69
2021/07/08 01:00:48;;;;;;;3.63;3.23;;;20.80;99.90;;;;;;4958883;29;20452;-69
2021/07/08 01:03:14;;;;;;;3.53;3.30;;;20.80;1.00;;;;;;4958928;29;21030;-70
2021/07/08 01:05:51;;;;;;;3.90;3.30;;;20.90;99.90;;;;;;4958877;29;20652;-70
2021/07/08 01:08:17;;;;;;;6.77;3.00;;;21.00;99.90;;;;;;4958343;29;20247;-70
2021/07/08 01:10:45;;;;;;;3.20;3.00;;;21.10;1.00;;;;;;4958555;29;20503;-71
2021/07/08 01:13:12;;;;;;;3.43;3.13;;;21.00;1.00;;;;;;4958431;29;20880;-71
2021/07/08 01:15:38;;;;;;;3.13;2.83;;;21.10;99.90;;;;;;4958748;29;20427;-71
2021/07/08 01:18:04;;;;;;;3.83;3.43;;;21.20;1.00;;;;;;4958353;29;20734;-71
2021/07/08 01:20:32;;;;;;;5.43;2.87;;;21.30;99.90;;;;;;4958100;29;20212;-71
2021/07/08 01:22:58;;;;;;;3.60;3.20;;;21.20;1.00;;;;;;4941249;29;20436;-71
2021/07/08 01:25:36;;;;;;;5.67;3.20;;;21.20;1.00;;;;;;4941332;29;20499;-71
2021/07/08 01:28:05;;;;;;;3.87;3.03;;;21.30;99.90;;;;;;4941136;29;20444;-71
2021/07/08 01:30:31;;;;;;;2.93;2.67;;;21.30;99.90;;;;;;4958133;29;20482;-71
2021/07/08 01:32:58;;;;;;;3.40;3.10;;;21.30;99.90;;;;;;4957711;28;20435;-71
2021/07/08 01:35:25;;;;;;;4.70;2.97;;;21.20;1.00;;;;;;4958102;29;20439;-71
2021/07/08 01:37:50;;;;;;;4.97;2.87;;;21.20;1.00;;;;;;4957816;29;20923;-71
2021/07/08 01:40:17;;;;;;;5.13;3.20;;;21.10;56.80;;;;;;4957914;29;20436;-70
2021/07/08 01:42:44;;;;;;;3.53;3.13;;;20.90;99.90;;;;;;4958337;29;20184;-70
2021/07/08 01:45:14;;;;;;;2.90;2.70;;;20.80;1.00;;;;;;4957900;29;20756;-70
2021/07/08 01:47:39;;;;;;;5.60;4.33;;;20.70;1.00;;;;;;4957990;29;20514;-70
2021/07/08 01:50:07;;;;;;;5.17;3.43;;;20.50;1.00;;;;;;4957797;29;20915;-71
2021/07/08 01:52:33;;;;;;;4.10;3.70;;;20.30;89.20;;;;;;4957746;29;20184;-71
2021/07/08 01:54:59;;;;;;;4.70;3.60;;;20.30;99.90;;;;;;4957715;29;20427;-71
2021/07/08 01:57:25;;;;;;;4.80;4.40;;;20.10;99.90;;;;;;4940633;29;20470;-71
2021/07/08 01:59:50;;;;;;;6.63;4.10;;;20.00;99.90;;;;;;4957438;29;20191;-70
2021/07/08 02:02:16;;;;;;;5.00;4.10;;;19.80;1.00;;;;;;4957546;29;20192;-70
2021/07/08 02:04:42;;;;;;;5.60;4.80;;;19.80;1.00;;;;;;4957547;29;20637;-70
2021/07/08 02:07:08;;;;;;;4.60;4.10;;;19.80;1.00;;;;;;4957272;29;20442;-71
2021/07/08 02:09:33;;;;;;;5.40;4.07;;;19.90;1.00;;;;;;4957047;29;20475;-71
2021/07/08 02:12:00;;;;;;;4.80;4.10;;;20.00;1.00;;;;;;4957467;29;20617;-71
2021/07/08 02:14:26;;;;;;;4.53;4.00;;;20.00;1.00;;;;;;4957030;29;20188;-71
2021/07/08 02:16:53;;;;;;;5.10;3.80;;;20.10;1.00;;;;;;4957179;29;20765;-70
2021/07/08 02:19:19;;;;;;;5.70;4.23;;;20.10;1.00;;;;;;4957141;29;20767;-71
2021/07/08 02:21:45;;;;;;;4.53;4.13;;;20.10;1.00;;;;;;4957232;29;20428;-71
2021/07/08 02:24:10;;;;;;;8.23;4.03;;;20.10;1.00;;;;;;4957190;29;20180;-67
2021/07/08 02:26:36;;;;;;;6.47;4.20;;;20.00;1.00;;;;;;4957045;29;20240;-67
2021/07/08 02:29:01;;;;;;;5.97;4.50;;;20.00;1.00;;;;;;4956986;29;20544;-67
2021/07/08 02:31:27;;;;;;;5.37;4.60;;;19.90;1.00;;;;;;4940138;29;20188;-67
2021/07/08 02:33:52;;;;;;;5.13;4.57;;;19.80;1.00;;;;;;4939968;29;20192;-67
2021/07/08 02:36:18;;;;;;;5.50;4.60;;;19.80;1.00;;;;;;4956849;29;20643;-68
2021/07/08 02:38:44;;;;;;;5.83;5.10;;;19.90;1.00;;;;;;4956700;29;20250;-68
2021/07/08 02:41:09;;;;;;;6.87;4.90;;;20.00;1.00;;;;;;4956908;29;20489;-68
2021/07/08 02:43:35;;;;;;;5.10;4.63;;;20.10;1.00;;;;;;4956911;29;20648;-68
2021/07/08 02:46:01;;;;;;;8.70;5.23;;;20.10;1.00;;;;;;4955820;28;20202;-68
2021/07/08 02:48:27;;;;;;;5.07;3.83;;;20.10;1.00;;;;;;4956523;29;20207;-68
2021/07/08 02:50:54;;;;;;;4.80;4.30;;;20.20;1.00;;;;;;4956650;29;20223;-67
2021/07/08 02:53:20;;;;;;;5.27;4.47;;;20.20;1.00;;;;;;4956582;29;20816;-68
2021/07/08 02:55:46;;;;;;;8.10;4.57;;;20.30;1.00;;;;;;4956521;29;20416;-68
2021/07/08 02:58:12;;;;;;;6.60;4.23;;;20.30;1.00;;;;;;4956338;29;20431;-68
2021/07/08 03:00:38;;;;;;;7.60;4.07;;;20.30;1.00;;;;;;4956562;29;20436;-68
2021/07/08 03:03:04;;;;;;;6.70;5.10;;;20.20;1.00;;;;;;4956543;29;20275;-69
2021/07/08 03:05:30;;;;;;;9.90;4.13;;;20.20;1.00;;;;;;4956385;29;20468;-70
2021/07/08 03:07:57;;;;;;;8.50;4.20;;;20.10;1.00;;;;;;4956202;29;20432;-70
2021/07/08 03:10:26;;;;;;;5.50;4.73;;;20.20;1.00;;;;;;4939059;29;20570;-70
2021/07/08 03:12:52;;;;;;;10.83;4.80;;;20.10;1.00;;;;;;4956514;29;20435;-70
2021/07/08 03:15:18;;;;;;;4.63;4.20;;;20.10;1.00;;;;;;4956172;29;20494;-70
2021/07/08 03:17:44;;;;;;;5.20;4.70;;;20.10;1.00;;;;;;4956152;29;20432;-70
2021/07/08 03:20:16;;;;;;;4.70;4.30;;;20.10;1.00;;;;;;4956060;29;20819;-70
2021/07/08 03:22:43;;;;;;;4.70;4.20;;;20.00;1.00;;;;;;4956089;29;20191;-70
2021/07/08 03:25:10;;;;;;;4.80;4.40;;;20.10;1.00;;;;;;4956098;29;20458;-71
2021/07/08 03:27:36;;;;;;;7.13;4.60;;;20.20;1.00;;;;;;4956007;29;20499;-70
2021/07/08 03:30:04;;;;;;;4.70;4.30;;;20.40;1.00;;;;;;4955972;29;20471;-70
2021/07/08 03:32:30;;;;;;;4.43;4.03;;;20.40;1.00;;;;;;4939292;29;20216;-70
2021/07/08 03:34:56;;;;;;;4.40;4.00;;;20.30;1.00;;;;;;4955842;29;20428;-71
2021/07/08 03:37:21;;;;;;;3.87;3.47;;;20.40;1.00;;;;;;4955823;29;20453;-70
2021/07/08 03:39:47;;;;;;;5.57;4.30;;;20.40;1.00;;;;;;4956011;29;20261;-70
2021/07/08 03:42:12;;;;;;;4.90;3.70;;;20.50;1.00;;;;;;4955935;29;20260;-71
2021/07/08 03:44:38;;;;;;;4.30;3.90;;;20.70;1.00;;;;;;4955926;29;20180;-70
2021/07/08 03:47:03;;;;;;;6.30;4.03;;;20.70;1.00;;;;;;4938929;29;20184;-70
2021/07/08 03:49:29;;;;;;;5.23;3.90;;;20.80;1.00;;;;;;4938608;29;20218;-71
2021/07/08 03:51:54;;;;;;;6.47;4.40;;;20.80;1.00;;;;;;4955612;29;20180;-71
2021/07/08 03:54:20;;;;;;;4.90;3.93;;;20.90;1.00;;;;;;4955712;29;20180;-71
2021/07/08 03:56:45;;;;;;;5.57;4.50;;;20.80;1.00;;;;;;4955183;29;20602;-71
2021/07/08 03:59:11;;;;;;;5.50;4.10;;;20.60;1.00;;;;;;4955431;29;20199;-71
2021/07/08 04:01:36;;;;;;;6.00;4.57;;;20.70;1.00;;;;;;4955626;29;20206;-71
2021/07/08 04:04:02;;;;;;;9.20;4.17;;;20.70;1.00;;;;;;4938601;29;20190;-71
2021/07/08 04:06:28;;;;;;;5.70;4.10;;;20.60;1.00;;;;;;4955503;29;20195;-71
2021/07/08 04:08:53;;;;;;;5.43;3.90;;;20.70;1.00;;;;;;4955210;29;20617;-71
2021/07/08 04:11:19;;;;;;;7.00;5.10;;;20.60;1.00;;;;;;4955629;29;20180;-71
2021/07/08 04:13:44;;;;;;;6.00;4.17;;;20.50;1.00;;;;;;4955516;29;20180;-71
2021/07/08 04:16:10;;;;;;;6.87;4.97;;;20.70;1.00;;;;;;4955495;29;20212;-71
2021/07/08 04:18:35;;;;;;;5.37;4.23;;;20.80;1.00;;;;;;4955165;29;20203;-71
2021/07/08 04:21:01;;;;;;;5.60;3.87;;;20.80;1.00;;;;;;4955836;29;20503;-71
2021/07/08 04:23:27;;;;;;;4.27;3.97;;;21.00;1.00;;;;;;4955690;29;20185;-71
2021/07/08 04:25:52;;;;;;;5.00;4.60;;;21.10;99.90;;;;;;4955375;29;20219;-71
2021/07/08 04:28:18;;;;;;;5.20;4.70;;;21.10;99.90;;;;;;4955015;29;20608;-71
2021/07/08 04:30:44;;;;;;;5.07;4.30;;;21.00;1.00;;;;;;4955400;29;20212;-70
2021/07/08 04:33:09;;;;;;;8.70;4.43;;;21.00;1.00;;;;;;4955483;29;20613;-69
2021/07/08 04:35:38;;;;;;;5.23;4.73;;;20.80;1.00;;;;;;4955417;29;20185;-70
2021/07/08 04:38:06;;;;;;;5.53;5.03;;;21.00;1.00;;;;;;4938330;29;20196;-70
2021/07/08 04:40:32;;;;;;;5.90;5.40;;;21.20;1.00;;;;;;4938842;29;20432;-70
2021/07/08 04:42:57;;;;;;;5.27;4.43;;;21.20;1.00;;;;;;4955342;29;20431;-70
2021/07/08 04:45:23;;;;;;;4.83;4.50;;;20.80;1.00;;;;;;4955423;29;20215;-69
2021/07/08 04:47:49;;;;;;;4.67;4.20;;;20.90;1.00;;;;;;4938157;29;20184;-70
2021/07/08 04:50:17;;;;;;;5.17;4.77;;;21.00;1.00;;;;;;4955152;29;20306;-69
2021/07/08 04:52:44;;;;;;;4.73;4.20;;;21.10;99.90;;;;;;4955226;29;20420;-70
2021/07/08 04:55:10;;;;;;;5.97;4.37;;;20.80;1.00;;;;;;4955196;29;20438;-70
2021/07/08 04:57:37;;;;;;;6.23;5.20;;;21.00;1.00;;;;;;4938215;29;20424;-70
2021/07/08 05:00:08;;;;;;;5.60;5.10;;;20.90;99.90;;;;;;4938227;29;20436;-69
2021/07/08 05:02:37;;;;;;;5.30;4.77;;;20.80;1.00;;;;;;4938151;29;20432;-69
2021/07/08 05:05:04;;;;;;;6.63;4.77;;;20.80;1.00;;;;;;4955083;29;20428;-70
2021/07/08 05:07:29;;;;;;;7.50;4.90;;;20.90;1.00;;;;;;4955029;28;20513;-70
2021/07/08 05:09:55;;;;;;;6.83;6.17;;;21.00;1.00;;;;;;4957605;29;20971;-70
2021/07/08 05:12:20;;;;;;;5.17;4.67;;;20.90;1.00;;;;;;4958550;29;20216;-70
2021/07/08 05:14:47;;;;;;;6.07;5.10;;;20.90;1.00;;;;;;4941634;29;20530;-67
2021/07/08 05:17:12;;;;;;;5.70;4.80;;;21.10;1.00;;;;;;4958082;29;20169;-66
2021/07/08 05:19:37;;;;;;;5.47;4.40;;;21.20;99.90;;;;;;4941236;29;20449;-66
2021/07/08 05:22:03;;;;;;;5.67;5.07;;;21.40;99.90;;;;;;4958176;29;20621;-66
2021/07/08 05:24:29;;;;;;;5.73;5.23;;;21.30;99.90;;;;;;4958422;29;20241;-66
2021/07/08 05:26:55;;;;;;;9.60;5.00;;;21.30;99.90;;;;;;4958534;29;20434;-67
2021/07/08 05:29:22;;;;;;;6.03;5.43;;;21.40;99.90;;;;;;4958140;29;20648;-66
2021/07/08 05:31:49;;;;;;;6.90;5.50;;;21.30;99.90;;;;;;4958199;29;20684;-66
2021/07/08 05:34:14;;;;;;;5.03;4.63;;;21.40;99.90;;;;;;4958107;29;20427;-66
2021/07/08 05:36:40;;;;;;;7.20;5.10;;;21.60;99.90;;;;;;4958062;29;20519;-67
2021/07/08 05:39:06;;;;;;;6.20;4.60;;;21.90;49.90;;;;;;4957806;29;20192;-67
2021/07/08 05:41:32;;;;;;;5.03;4.53;;;22.10;1.00;;;;;;4958304;29;20715;-67
2021/07/08 05:43:57;;;;;;;5.10;4.40;;;22.20;99.90;;;;;;4958206;29;20427;-67
2021/07/08 05:46:23;;;;;;;5.13;4.63;;;22.70;1.00;;;;;;4958004;29;20199;-66
2021/07/08 05:48:49;;;;;;;4.63;3.90;;;22.80;99.90;;;;;;4958229;29;20267;-67
2021/07/08 05:51:15;;;;;;;4.67;4.30;;;22.90;1.00;;;;;;4958147;29;20177;-66
2021/07/08 05:53:41;;;;;;;6.97;4.73;;;22.90;1.00;;;;;;4957972;29;20420;-69
2021/07/08 05:56:06;;;;;;;9.00;4.80;;;22.80;1.00;;;;;;4958011;29;20185;-69
2021/07/08 05:58:32;;;;;;;5.30;4.43;;;22.70;1.00;;;;;;4957498;29;20442;-69
2021/07/08 06:00:58;;;;;;;4.77;4.37;;;22.50;99.90;;;;;;4957950;29;20215;-69
2021/07/08 06:03:24;;;;;;;4.77;4.27;;;22.70;1.00;;;;;;4957899;29;20190;-69
2021/07/08 06:05:50;;;;;;;4.13;3.83;;;22.90;99.90;;;;;;4957829;29;20442;-69
2021/07/08 06:08:16;;;;;;;9.33;5.77;;;23.00;99.90;;;;;;4957247;29;20519;-69
2021/07/08 06:10:42;;;;;;;5.93;5.33;;;22.70;98.20;;;;;;4957683;29;20468;-69
2021/07/08 06:13:08;;;;;;;6.10;5.20;;;22.80;1.00;;;;;;4957610;29;20423;-69
2021/07/08 06:15:34;;;;;;;6.10;5.60;;;22.90;8.20;;;;;;4957517;29;20215;-69
2021/07/08 06:18:00;;;;;;;5.83;5.33;;;22.90;4.00;;;;;;4957415;29;20460;-69
2021/07/08 06:20:26;;;;;;;8.00;5.30;;;23.90;1.00;;;;;;4957226;28;20212;-69
2021/07/08 06:22:51;;;;;;;5.40;4.90;;;25.10;1.00;;;;;;4940467;29;20217;-70
2021/07/08 06:25:17;;;;;;;6.50;5.83;;;25.30;99.90;;;;;;4957160;29;20776;-70
2021/07/08 06:27:43;;;;;;;5.83;5.20;;;24.80;1.00;;;;;;4940096;29;20294;-70
2021/07/08 06:30:09;;;;;;;7.17;6.10;;;24.00;1.00;;;;;;4956605;29;20204;-70
2021/07/08 06:32:34;;;;;;;8.27;5.87;;;23.50;99.90;;;;;;4957002;29;20262;-70
2021/07/08 06:35:01;;;;;;;8.93;6.10;;;23.60;99.90;;;;;;4939873;29;20439;-70
2021/07/08 06:37:27;;;;;;;6.10;5.50;;;23.50;99.90;;;;;;4956486;29;20196;-69
2021/07/08 06:39:53;;;;;;;6.47;5.87;;;23.70;1.00;;;;;;4956658;29;20435;-69
2021/07/08 06:42:22;;;;;;;15.20;6.80;;;23.90;1.00;;;;;;4956807;29;20184;-69
2021/07/08 06:44:47;;;;;;;12.03;7.20;;;24.10;99.90;;;;;;4956713;29;20435;-69
2021/07/08 06:47:16;;;;;;;6.70;6.00;;;23.90;93.90;;;;;;4956583;29;20507;-69
2021/07/08 06:49:41;;;;;;;7.03;5.83;;;23.70;99.90;;;;;;4939747;29;20271;-70
2021/07/08 06:52:07;;;;;;;8.33;6.27;;;23.80;99.90;;;;;;4956809;29;20419;-70
2021/07/08 06:54:33;;;;;;;6.47;5.93;;;23.90;99.90;;;;;;4956430;29;20188;-71
2021/07/08 06:56:59;;;;;;;8.13;7.13;;;23.40;99.90;;;;;;4956368;29;20173;-71
2021/07/08 06:59:24;;;;;;;8.90;6.60;;;23.30;99.90;;;;;;4939620;29;20442;-70
2021/07/08 07:01:50;;;;;;;8.20;6.30;;;23.80;99.90;;;;;;4956376;29;20199;-70
2021/07/08 07:04:16;;;;;;;7.93;5.87;;;24.20;99.90;;;;;;4960489;28;20239;-72
2021/07/08 07:06:41;;;;;;;8.30;7.10;;;24.50;99.90;;;;;;4971257;28;20194;-67
2021/07/08 07:09:07;;;;;;;9.43;6.33;;;24.90;1.00;;;;;;4958569;28;20309;-71
2021/07/08 07:11:33;;;;;;;8.17;6.50;;;25.10;1.00;;;;;;4972700;28;20195;-71
2021/07/08 07:13:59;;;;;;;6.10;5.53;;;25.40;1.00;;;;;;4939105;29;20261;-68
2021/07/08 07:16:25;;;;;;;6.60;5.90;;;25.60;99.90;;;;;;4939116;29;20180;-67
2021/07/08 07:18:50;;;;;;;6.73;6.10;;;25.90;99.90;;;;;;4956016;29;20177;-67
2021/07/08 07:21:16;;;;;;;6.83;6.23;;;25.40;99.90;;;;;;4968409;28;20179;-68
2021/07/08 07:23:42;;;;;;;7.40;6.10;;;25.20;1.00;;;;;;4958369;28;20183;-66
2021/07/08 07:26:09;;;;;;;6.90;5.63;;;25.30;1.00;;;;;;4975356;28;20628;-67
2021/07/08 07:28:36;;;;;;;7.43;5.20;;;26.10;1.00;;;;;;4975445;28;20427;-70
2021/07/08 07:31:02;;;;;;;8.03;5.30;;;26.50;99.90;;;;;;4975035;28;20864;-71
2021/07/08 07:33:28;;;;;;;5.97;5.43;;;27.20;99.90;;;;;;4975515;28;20423;-72
2021/07/08 07:35:53;;;;;;;6.67;6.17;;;27.40;99.90;;;;;;4975445;28;20426;-71
2021/07/08 07:38:19;;;;;;;8.40;6.07;;;26.90;1.00;;;;;;4945705;29;20377;-71
2021/07/08 07:40:45;;;;;;;8.30;6.10;;;26.20;1.00;;;;;;4939017;29;20248;-68
2021/07/08 07:43:11;;;;;;;6.97;6.27;;;25.50;99.90;;;;;;4938631;29;20243;-72
2021/07/08 07:45:38;;;;;;;6.87;5.63;;;25.70;99.90;;;;;;4955755;29;20275;-72
2021/07/08 07:48:04;;;;;;;5.63;5.13;;;26.00;99.90;;;;;;4938767;29;20474;-71
2021/07/08 07:50:32;;;;;;;8.10;5.50;;;26.30;1.00;;;;;;4958764;29;20467;-73
2021/07/08 07:52:59;;;;;;;6.57;5.73;;;26.40;1.00;;;;;;4956568;28;20581;-73
2021/07/08 07:55:28;;;;;;;7.50;5.30;;;26.70;1.00;;;;;;4956174;29;20788;-73
2021/07/08 07:58:00;;;;;;;7.10;5.57;;;26.80;99.90;;;;;;4938786;29;20786;-73
2021/07/08 08:00:28;;;;;;;6.43;5.80;;;26.80;1.00;;;;;;4955578;29;20770;-71
2021/07/08 08:02:53;;;;;;;6.40;5.90;;;26.60;99.90;;;;;;4955037;29;20787;-72
2021/07/08 08:05:22;;;;;;;13.47;8.10;;;26.90;99.90;;;;;;4938547;29;20431;-72
2021/07/08 08:10:36;;;;;;;6.40;5.80;;;26.90;1.00;;;;;;4956484;29;20605;-71
2021/07/08 08:13:04;;;;;;;6.70;5.67;;;27.10;99.90;;;;;;4957903;29;20936;-72
2021/07/08 08:15:30;;;;;;;7.13;6.47;;;27.00;1.00;;;;;;4956368;29;20967;-72
2021/07/08 08:17:55;;;;;;;8.00;7.30;;;26.30;1.00;;;;;;4955229;29;20442;-73
2021/07/08 08:20:21;;;;;;;10.20;8.20;;;26.30;1.00;;;;;;4955285;28;20566;-71
2021/07/08 08:22:47;;;;;;;8.00;7.20;;;26.80;1.00;;;;;;4955302;29;20232;-70
2021/07/08 08:25:12;;;;;;;6.40;5.80;;;26.60;1.00;;;;;;4955298;29;20184;-72
2021/07/08 08:27:39;;;;;;;9.17;6.13;;;26.60;1.00;;;;;;4955113;29;20236;-71
2021/07/08 08:30:05;;;;;;;10.80;8.60;;;26.50;1.00;;;;;;4955269;29;20216;-69
2021/07/08 08:32:31;;;;;;;8.43;7.20;;;26.30;1.00;;;;;;4955393;29;20423;-68
2021/07/08 08:34:56;;;;;;;8.50;6.87;;;26.40;1.00;;;;;;4955654;28;20546;-66
2021/07/08 08:37:22;;;;;;;6.83;6.00;;;25.30;99.90;;;;;;4954800;28;20200;-67
2021/07/08 08:39:47;;;;;;;7.50;6.80;;;25.70;99.90;;;;;;4955149;29;20189;-69
2021/07/08 08:42:14;;;;;;;6.67;6.07;;;26.10;99.90;;;;;;4955110;28;20191;-68
2021/07/08 08:44:40;;;;;;;9.57;7.13;;;26.90;1.00;;;;;;4957812;29;20268;-71
2021/07/08 08:47:12;;;;;;;5.63;5.00;;;26.80;1.00;;;;;;4958714;29;20892;-69
2021/07/08 08:49:41;;;;;;;8.43;5.20;;;26.70;99.90;;;;;;4958670;29;20207;-69
2021/07/08 08:52:11;;;;;;;6.60;5.37;;;27.10;32.20;;;;;;4958576;29;20431;-69
2021/07/08 08:54:40;;;;;;;5.53;4.93;;;27.50;40.40;;;;;;4958754;29;20750;-70
2021/07/08 08:57:07;;;;;;;4.73;4.33;;;27.50;20.70;;;;;;4958472;29;20427;-73
2021/07/08 08:59:33;;;;;;;4.90;4.37;;;27.50;1.00;;;;;;4958555;29;20424;-74
2021/07/08 09:02:18;;;;;;;6.10;4.10;;;27.40;68.60;;;;;;4958596;28;20434;-72
2021/07/08 09:04:46;;;;;;;4.33;4.03;;;26.80;99.90;;;;;;4958461;29;20514;-70
2021/07/08 09:07:26;;;;;;;6.17;5.00;;;25.60;1.00;;;;;;4958347;29;20434;-71
2021/07/08 09:09:53;;;;;;;5.23;4.43;;;25.80;1.00;;;;;;4957984;29;20463;-69
2021/07/08 09:12:22;;;;;;;5.30;3.80;;;26.30;1.00;;;;;;4958053;29;20440;-69
2021/07/08 09:14:47;;;;;;;5.93;4.67;;;27.10;99.90;;;;;;4958104;29;20762;-68
2021/07/08 09:17:22;;;;;;;7.03;4.73;;;27.30;1.00;;;;;;4957007;29;20436;-73
2021/07/08 09:20:04;;;;;;;4.93;4.53;;;27.80;1.00;;;;;;4956829;29;20186;-74
2021/07/08 09:22:30;;;;;;;5.63;3.80;;;28.30;1.00;;;;;;4958400;29;20442;-68
2021/07/08 09:24:56;;;;;;;5.23;4.70;;;28.30;1.00;;;;;;4957883;29;20506;-67
2021/07/08 09:27:27;;;;;;;6.47;5.73;;;28.20;1.00;;;;;;4958081;29;20797;-68
2021/07/08 09:29:54;;;;;;;4.80;4.40;;;28.10;1.00;;;;;;4957998;29;20208;-68
2021/07/08 09:32:22;;;;;;;4.63;4.10;;;28.20;1.00;;;;;;4958170;29;20428;-68
2021/07/08 09:34:57;;;;;;;5.00;3.93;;;28.40;1.00;;;;;;4958104;29;20427;-70
2021/07/08 09:37:26;;;;;;;5.40;4.27;;;28.30;1.00;;;;;;4957999;29;20494;-72
2021/07/08 09:39:58;;;;;;;6.23;3.77;;;28.70;1.00;;;;;;4957876;29;20487;-72
2021/07/08 09:42:34;;;;;;;3.87;3.57;;;28.80;1.00;;;;;;4957989;29;20891;-68
2021/07/08 09:45:17;;;;;;;4.17;3.20;;;28.80;1.00;;;;;;4940904;29;20462;-68
2021/07/08 09:47:45;;;;;;;3.80;3.30;;;28.30;1.00;;;;;;4957543;29;20445;-69
2021/07/08 09:50:14;;;;;;;6.97;3.67;;;27.70;1.00;;;;;;4963160;28;20470;-67
2021/07/08 09:52:40;;;;;;;3.50;3.20;;;27.30;1.00;;;;;;4977201;28;20423;-68
2021/07/08 09:55:20;;;;;;;5.77;3.87;;;27.10;1.00;;;;;;4976402;28;20429;-68
2021/07/08 09:57:47;;;;;;;3.80;2.90;;;27.20;1.00;;;;;;4976717;28;20806;-67
2021/07/08 10:00:19;;;;;;;5.03;3.70;;;27.10;1.00;;;;;;4976904;28;20439;-67
2021/07/08 10:02:46;;;;;;;5.50;3.83;;;27.00;1.00;;;;;;4976915;28;20502;-67
2021/07/08 10:05:12;;;;;;;4.70;3.33;;;27.00;1.00;;;;;;4976903;28;20437;-67
2021/07/08 10:07:38;;;;;;;4.10;3.63;;;27.30;1.00;;;;;;4976690;28;20423;-66
2021/07/08 10:10:06;;;;;;;7.53;6.40;;;27.60;1.00;;;;;;4976472;28;20463;-66
2021/07/08 10:12:33;;;;;;;4.50;3.63;;;27.60;7.40;;;;;;4976687;28;20427;-66
2021/07/08 10:15:06;;;;;;;3.80;3.50;;;26.90;1.00;;;;;;4976663;28;20940;-66
2021/07/08 10:17:35;;;;;;;4.53;3.00;;;26.30;59.60;;;;;;4976554;28;20440;-66
2021/07/08 10:20:04;;;;;;;4.03;3.63;;;26.60;89.60;;;;;;4976532;28;20427;-66
2021/07/08 10:22:30;;;;;;;5.27;3.37;;;26.80;1.00;;;;;;4976838;28;20426;-66
2021/07/08 10:24:56;;;;;;;5.13;4.10;;;26.50;1.00;;;;;;4976373;28;20425;-66
2021/07/08 10:27:23;;;;;;;5.23;3.60;;;26.80;3.00;;;;;;4976516;28;20894;-66
2021/07/08 10:29:49;;;;;;;4.60;3.90;;;27.30;1.00;;;;;;4976987;28;20266;-66
2021/07/08 10:32:16;;;;;;;7.10;3.87;;;27.70;1.00;;;;;;4976459;28;20427;-67
2021/07/08 10:34:49;;;;;;;6.33;5.10;;;27.40;1.00;;;;;;4975943;28;20434;-67
2021/07/08 10:37:43;;;;;;;4.63;4.10;;;27.80;1.00;;;;;;4975725;28;20937;-67
2021/07/08 10:40:28;;;;;;;4.30;3.90;;;27.90;1.00;;;;;;4973081;28;20453;-67
2021/07/08 10:42:54;;;;;;;3.77;3.37;;;27.90;1.00;;;;;;4976012;28;20673;-67
2021/07/08 10:45:22;;;;;;;8.50;3.40;;;28.30;1.00;;;;;;4963098;28;20448;-66
2021/07/08 10:47:50;;;;;;;6.57;4.87;;;28.00;1.00;;;;;;4972346;28;20696;-66
2021/07/08 10:50:39;;;;;;;5.40;4.90;;;27.80;1.00;;;;;;4956207;29;20518;-66
2021/07/08 10:53:24;;;;;;;6.93;5.60;;;27.70;1.00;;;;;;4959860;28;20427;-65
2021/07/08 10:56:05;;;;;;;5.50;4.30;;;27.30;96.80;;;;;;4956574;29;20423;-67
2021/07/08 10:58:51;;;;;;;7.10;4.77;;;27.60;1.00;;;;;;4956501;29;20428;-67
2021/07/08 11:01:23;;;;;;;3.53;3.10;;;28.30;1.00;;;;;;4965679;28;20771;-66
2021/07/08 11:04:03;;;;;;;5.03;3.13;;;28.40;1.00;;;;;;4975873;28;20455;-67
2021/07/08 11:06:33;;;;;;;6.60;4.60;;;28.50;1.00;;;;;;4974954;28;20446;-66
2021/07/08 11:09:11;;;;;;;3.60;3.13;;;28.10;1.00;;;;;;4975482;28;20429;-65
2021/07/08 11:11:45;;;;;;;5.07;3.63;;;28.10;1.00;;;;;;4975481;28;20427;-67
2021/07/08 11:14:14;;;;;;;4.03;3.70;;;28.30;1.00;;;;;;4975378;28;20427;-67
2021/07/08 11:16:43;;;;;;;5.17;3.90;;;28.50;1.00;;;;;;4975361;28;20436;-68
2021/07/08 11:19:19;;;;;;;4.90;3.80;;;29.30;1.00;;;;;;4960071;28;20487;-66
2021/07/08 11:22:03;;;;;;;4.10;3.77;;;29.40;1.00;;;;;;4956133;29;20502;-68
2021/07/08 11:24:46;;;;;;;6.83;4.37;;;28.70;1.00;;;;;;4956107;29;20529;-67
2021/07/08 11:27:23;;;;;;;4.53;4.07;;;28.60;1.00;;;;;;4955864;29;20423;-67
2021/07/08 11:29:58;;;;;;;7.23;3.97;;;28.20;1.00;;;;;;4955689;29;20803;-68
2021/07/08 11:32:29;;;;;;;4.57;4.13;;;28.10;1.00;;;;;;4955782;29;20431;-68
2021/07/08 11:35:13;;;;;;;4.60;4.20;;;28.20;1.00;;;;;;4955842;29;20428;-68
2021/07/08 11:37:44;;;;;;;7.13;4.00;;;27.70;1.00;;;;;;4955571;29;20466;-69
2021/07/08 11:40:18;;;;;;;6.30;3.90;;;27.80;1.00;;;;;;4956040;29;20553;-68
2021/07/08 11:42:46;;;;;;;4.70;4.23;;;28.10;1.00;;;;;;4955584;29;20443;-69
2021/07/08 11:45:20;;;;;;;4.03;3.73;;;28.40;1.00;;;;;;4938980;29;20446;-69
2021/07/08 11:47:49;;;;;;;5.30;4.40;;;28.80;1.00;;;;;;4955328;29;20427;-67
2021/07/08 11:50:27;;;;;;;4.43;4.03;;;28.70;1.00;;;;;;4955198;29;20471;-68
2021/07/08 11:53:14;;;;;;;3.40;3.10;;;28.70;1.00;;;;;;4967324;28;20435;-71
2021/07/08 11:55:47;;;;;;;5.33;3.67;;;29.40;1.00;;;;;;4967578;28;20468;-70
2021/07/08 11:58:15;;;;;;;5.50;4.30;;;29.10;1.00;;;;;;4964232;28;20434;-70
2021/07/08 12:00:46;;;;;;;4.40;4.00;;;29.00;1.00;;;;;;4948725;28;20427;-69
2021/07/08 12:03:31;;;;;;;4.87;4.47;;;28.80;1.00;;;;;;4965147;28;20432;-66
2021/07/08 12:06:13;;;;;;;5.40;4.90;;;27.60;36.20;;;;;;4964883;28;20904;-65
2021/07/08 12:08:45;;;;;;;6.57;4.60;;;27.80;1.70;;;;;;4964594;28;20435;-64
2021/07/08 12:11:18;;;;;;;6.00;4.07;;;28.40;1.00;;;;;;4947571;28;20471;-64
2021/07/08 12:13:53;;;;;;;4.57;4.17;;;28.30;1.00;;;;;;4961039;28;20427;-65
2021/07/08 12:16:32;;;;;;;4.83;3.43;;;28.30;1.00;;;;;;4963641;28;20427;-63
2021/07/08 12:19:03;;;;;;;4.63;4.13;;;28.80;1.00;;;;;;4966730;28;20427;-64
2021/07/08 12:21:30;;;;;;;4.77;4.30;;;28.60;1.00;;;;;;4968389;28;20435;-63
2021/07/08 12:23:58;;;;;;;3.80;3.30;;;28.20;1.00;;;;;;4969143;28;20523;-64
2021/07/08 12:26:32;;;;;;;5.70;3.70;;;27.80;1.00;;;;;;4964702;28;21055;-63
2021/07/08 12:29:16;;;;;;;4.20;3.80;;;28.00;1.00;;;;;;4967027;28;20431;-63
2021/07/08 12:31:54;;;;;;;5.90;4.03;;;28.30;1.00;;;;;;4974081;28;20438;-65
2021/07/08 12:34:46;;;;;;;4.03;3.60;;;29.20;1.00;;;;;;4968907;28;20476;-66
2021/07/08 12:37:19;;;;;;;4.70;4.10;;;29.30;1.00;;;;;;4965993;28;20545;-64
2021/07/08 12:39:59;;;;;;;5.30;3.87;;;29.00;1.00;;;;;;4967083;28;20435;-64
2021/07/08 12:42:27;;;;;;;7.57;4.10;;;28.90;1.00;;;;;;4964680;28;20423;-64
2021/07/08 12:44:58;;;;;;;4.63;3.93;;;28.80;1.00;;;;;;4969568;28;20441;-64
2021/07/08 12:47:23;;;;;;;4.63;3.43;;;28.90;1.00;;;;;;4949927;28;20984;-64
2021/07/08 12:49:51;;;;;;;4.63;3.80;;;28.40;1.00;;;;;;4966828;28;20557;-66
2021/07/08 12:52:18;;;;;;;13.30;4.33;;;28.20;1.00;;;;;;4966498;28;20266;-62
2021/07/08 12:54:44;;;;;;;6.87;3.60;;;28.20;1.00;;;;;;4977381;28;20442;-64
2021/07/08 12:57:13;;;;;;;3.97;3.47;;;28.60;1.00;;;;;;4974927;28;20525;-65
2021/07/08 12:59:50;;;;;;;7.33;4.33;;;28.70;1.00;;;;;;4958369;29;20177;-66
2021/07/08 13:02:20;;;;;;;4.27;3.30;;;28.60;1.00;;;;;;4958709;29;20465;-64